sensor_id;sensor_type;location;lat;lon;timestamp;P1;durP1;ratioP1;P2;durP2;ratioP2
31091;SDS011;67728;53.122;12.776;2023-07-02T00:00:51;295.40;;;72.43;;
31091;SDS011;67728;53.122;12.776;2023-07-02T00:02:25;300.40;;;75.07;;
31091;SDS011;67728;53.122;12.776;2023-07-02T00:03:57;307.30;;;81.70;;
31091;SDS011;67728;53.122;12.776;2023-07-02T00:05:28;301.20;;;76.03;;
31091;SDS011;67728;53.122;12.776;2023-07-02T00:07:00;298.67;;;73.80;;
31091;SDS011;67728;53.122;12.776;2023-07-02T00:08:34;298.23;;;72.83;;
31091;SDS011;67728;53.122;12.776;2023-07-02T00:10:07;298.87;;;74.00;;
31091;SDS011;67728;53.122;12.776;2023-07-02T00:11:41;299.73;;;72.70;;
31091;SDS011;67728;53.122;12.776;2023-07-02T00:13:15;299.47;;;72.83;;
31091;SDS011;67728;53.122;12.776;2023-07-02T00:14:47;298.87;;;74.17;;
31091;SDS011;67728;53.122;12.776;2023-07-02T00:16:19;301.30;;;73.27;;
31091;SDS011;67728;53.122;12.776;2023-07-02T00:17:49;299.43;;;72.80;;
31091;SDS011;67728;53.122;12.776;2023-07-02T00:19:21;299.07;;;71.87;;
31091;SDS011;67728;53.122;12.776;2023-07-02T00:20:51;299.90;;;73.20;;
31091;SDS011;67728;53.122;12.776;2023-07-02T00:22:23;299.60;;;72.63;;
31091;SDS011;67728;53.122;12.776;2023-07-02T00:23:55;296.00;;;71.63;;
31091;SDS011;67728;53.122;12.776;2023-07-02T00:25:28;299.80;;;70.07;;
31091;SDS011;67728;53.122;12.776;2023-07-02T00:27:00;297.57;;;71.53;;
31091;SDS011;67728;53.122;12.776;2023-07-02T00:28:31;297.10;;;70.47;;
31091;SDS011;67728;53.122;12.776;2023-07-02T00:30:02;295.83;;;69.17;;
31091;SDS011;67728;53.122;12.776;2023-07-02T00:31:34;295.63;;;69.13;;
31091;SDS011;67728;53.122;12.776;2023-07-02T00:33:06;295.83;;;69.80;;
31091;SDS011;67728;53.122;12.776;2023-07-02T00:34:36;296.37;;;69.23;;
31091;SDS011;67728;53.122;12.776;2023-07-02T00:36:08;311.07;;;76.93;;
31091;SDS011;67728;53.122;12.776;2023-07-02T00:37:43;297.33;;;71.77;;
31091;SDS011;67728;53.122;12.776;2023-07-02T00:39:14;297.30;;;70.73;;
31091;SDS011;67728;53.122;12.776;2023-07-02T00:40:49;297.27;;;71.63;;
31091;SDS011;67728;53.122;12.776;2023-07-02T00:42:20;301.87;;;73.97;;
31091;SDS011;67728;53.122;12.776;2023-07-02T00:43:53;297.80;;;71.53;;
31091;SDS011;67728;53.122;12.776;2023-07-02T00:45:25;298.67;;;73.00;;
31091;SDS011;67728;53.122;12.776;2023-07-02T00:46:57;306.67;;;74.23;;
31091;SDS011;67728;53.122;12.776;2023-07-02T00:48:29;299.63;;;72.80;;
31091;SDS011;67728;53.122;12.776;2023-07-02T00:50:00;296.80;;;70.27;;
31091;SDS011;67728;53.122;12.776;2023-07-02T00:51:32;298.93;;;72.03;;
31091;SDS011;67728;53.122;12.776;2023-07-02T00:53:04;299.53;;;72.50;;
31091;SDS011;67728;53.122;12.776;2023-07-02T00:54:36;297.53;;;71.33;;
31091;SDS011;67728;53.122;12.776;2023-07-02T00:56:08;298.87;;;72.87;;
31091;SDS011;67728;53.122;12.776;2023-07-02T00:57:39;303.30;;;77.40;;
31091;SDS011;67728;53.122;12.776;2023-07-02T00:59:10;295.10;;;70.47;;
31091;SDS011;67728;53.122;12.776;2023-07-02T01:00:43;297.90;;;72.70;;
31091;SDS011;67728;53.122;12.776;2023-07-02T01:02:13;296.37;;;71.17;;
31091;SDS011;67728;53.122;12.776;2023-07-02T01:03:51;301.37;;;78.57;;
31091;SDS011;67728;53.122;12.776;2023-07-02T01:05:23;299.43;;;75.23;;
31091;SDS011;67728;53.122;12.776;2023-07-02T01:06:55;302.53;;;80.47;;
31091;SDS011;67728;53.122;12.776;2023-07-02T01:08:28;306.67;;;81.23;;
31091;SDS011;67728;53.122;12.776;2023-07-02T01:09:58;299.90;;;71.70;;
31091;SDS011;67728;53.122;12.776;2023-07-02T01:11:33;309.73;;;88.90;;
31091;SDS011;67728;53.122;12.776;2023-07-02T01:13:08;298.10;;;72.60;;
31091;SDS011;67728;53.122;12.776;2023-07-02T01:14:42;295.90;;;70.17;;
31091;SDS011;67728;53.122;12.776;2023-07-02T01:16:17;296.20;;;68.80;;
31091;SDS011;67728;53.122;12.776;2023-07-02T01:17:48;295.00;;;71.43;;
31091;SDS011;67728;53.122;12.776;2023-07-02T01:19:21;296.93;;;70.27;;
31091;SDS011;67728;53.122;12.776;2023-07-02T01:20:58;296.67;;;69.17;;
31091;SDS011;67728;53.122;12.776;2023-07-02T01:22:31;300.50;;;71.83;;
31091;SDS011;67728;53.122;12.776;2023-07-02T01:24:04;298.57;;;72.33;;
31091;SDS011;67728;53.122;12.776;2023-07-02T01:25:36;298.07;;;70.90;;
31091;SDS011;67728;53.122;12.776;2023-07-02T01:27:08;300.20;;;73.87;;
31091;SDS011;67728;53.122;12.776;2023-07-02T01:28:41;298.47;;;73.63;;
31091;SDS011;67728;53.122;12.776;2023-07-02T01:30:12;298.83;;;75.20;;
31091;SDS011;67728;53.122;12.776;2023-07-02T01:31:44;300.77;;;79.23;;
31091;SDS011;67728;53.122;12.776;2023-07-02T01:33:16;300.50;;;77.47;;
31091;SDS011;67728;53.122;12.776;2023-07-02T01:34:47;299.37;;;74.33;;
31091;SDS011;67728;53.122;12.776;2023-07-02T01:36:21;299.37;;;75.60;;
31091;SDS011;67728;53.122;12.776;2023-07-02T01:37:52;319.43;;;111.80;;
31091;SDS011;67728;53.122;12.776;2023-07-02T01:39:24;305.40;;;89.20;;
31091;SDS011;67728;53.122;12.776;2023-07-02T01:40:56;298.37;;;78.73;;
31091;SDS011;67728;53.122;12.776;2023-07-02T01:42:26;293.30;;;67.23;;
31091;SDS011;67728;53.122;12.776;2023-07-02T01:43:58;292.53;;;67.33;;
31091;SDS011;67728;53.122;12.776;2023-07-02T01:45:30;293.00;;;68.23;;
31091;SDS011;67728;53.122;12.776;2023-07-02T01:47:01;300.70;;;81.87;;
31091;SDS011;67728;53.122;12.776;2023-07-02T01:48:32;297.90;;;84.03;;
31091;SDS011;67728;53.122;12.776;2023-07-02T01:50:04;311.07;;;92.30;;
31091;SDS011;67728;53.122;12.776;2023-07-02T01:51:37;298.93;;;71.20;;
31091;SDS011;67728;53.122;12.776;2023-07-02T01:53:09;293.77;;;77.57;;
31091;SDS011;67728;53.122;12.776;2023-07-02T01:54:40;292.40;;;75.97;;
31091;SDS011;67728;53.122;12.776;2023-07-02T01:56:11;291.50;;;69.90;;
31091;SDS011;67728;53.122;12.776;2023-07-02T01:57:43;293.30;;;72.13;;
31091;SDS011;67728;53.122;12.776;2023-07-02T01:59:14;295.17;;;71.27;;
31091;SDS011;67728;53.122;12.776;2023-07-02T02:00:46;286.07;;;61.13;;
31091;SDS011;67728;53.122;12.776;2023-07-02T02:02:18;291.73;;;64.33;;
31091;SDS011;67728;53.122;12.776;2023-07-02T02:03:49;290.03;;;63.40;;
31091;SDS011;67728;53.122;12.776;2023-07-02T02:05:21;288.20;;;61.70;;
31091;SDS011;67728;53.122;12.776;2023-07-02T02:06:53;289.97;;;63.10;;
31091;SDS011;67728;53.122;12.776;2023-07-02T02:08:25;288.80;;;62.87;;
31091;SDS011;67728;53.122;12.776;2023-07-02T02:09:55;288.47;;;62.50;;
31091;SDS011;67728;53.122;12.776;2023-07-02T02:11:27;287.07;;;60.73;;
31091;SDS011;67728;53.122;12.776;2023-07-02T02:12:57;295.27;;;63.90;;
31091;SDS011;67728;53.122;12.776;2023-07-02T02:14:29;290.80;;;62.90;;
31091;SDS011;67728;53.122;12.776;2023-07-02T02:15:59;291.40;;;63.70;;
31091;SDS011;67728;53.122;12.776;2023-07-02T02:17:31;297.20;;;64.70;;
31091;SDS011;67728;53.122;12.776;2023-07-02T02:19:03;291.07;;;63.10;;
31091;SDS011;67728;53.122;12.776;2023-07-02T02:20:35;287.67;;;61.67;;
31091;SDS011;67728;53.122;12.776;2023-07-02T02:22:07;288.83;;;62.03;;
31091;SDS011;67728;53.122;12.776;2023-07-02T02:23:38;300.60;;;66.37;;
31091;SDS011;67728;53.122;12.776;2023-07-02T02:25:10;287.07;;;61.20;;
31091;SDS011;67728;53.122;12.776;2023-07-02T02:26:41;289.60;;;64.60;;
31091;SDS011;67728;53.122;12.776;2023-07-02T02:28:12;313.13;;;99.60;;
31091;SDS011;67728;53.122;12.776;2023-07-02T02:29:44;305.90;;;98.43;;
31091;SDS011;67728;53.122;12.776;2023-07-02T02:31:16;308.93;;;89.73;;
31091;SDS011;67728;53.122;12.776;2023-07-02T02:32:46;303.57;;;73.97;;
31091;SDS011;67728;53.122;12.776;2023-07-02T02:34:19;313.13;;;76.50;;
31091;SDS011;67728;53.122;12.776;2023-07-02T02:35:50;298.83;;;70.03;;
31091;SDS011;67728;53.122;12.776;2023-07-02T02:37:23;303.53;;;72.97;;
31091;SDS011;67728;53.122;12.776;2023-07-02T02:38:54;293.33;;;71.50;;
31091;SDS011;67728;53.122;12.776;2023-07-02T02:40:26;291.20;;;70.30;;
31091;SDS011;67728;53.122;12.776;2023-07-02T02:41:57;288.17;;;63.63;;
31091;SDS011;67728;53.122;12.776;2023-07-02T02:43:28;297.77;;;76.20;;
31091;SDS011;67728;53.122;12.776;2023-07-02T02:44:59;295.63;;;66.07;;
31091;SDS011;67728;53.122;12.776;2023-07-02T02:46:31;295.80;;;63.83;;
31091;SDS011;67728;53.122;12.776;2023-07-02T02:48:02;301.17;;;66.33;;
31091;SDS011;67728;53.122;12.776;2023-07-02T02:49:36;330.87;;;75.40;;
31091;SDS011;67728;53.122;12.776;2023-07-02T02:51:08;316.20;;;70.87;;
31091;SDS011;67728;53.122;12.776;2023-07-02T02:52:41;296.00;;;70.90;;
31091;SDS011;67728;53.122;12.776;2023-07-02T02:54:12;290.70;;;64.30;;
31091;SDS011;67728;53.122;12.776;2023-07-02T02:55:43;298.57;;;66.47;;
31091;SDS011;67728;53.122;12.776;2023-07-02T02:57:15;301.53;;;64.83;;
31091;SDS011;67728;53.122;12.776;2023-07-02T02:58:45;288.23;;;62.03;;
31091;SDS011;67728;53.122;12.776;2023-07-02T03:00:17;288.00;;;61.73;;
31091;SDS011;67728;53.122;12.776;2023-07-02T03:01:49;287.77;;;62.17;;
31091;SDS011;67728;53.122;12.776;2023-07-02T03:03:21;286.33;;;60.33;;
31091;SDS011;67728;53.122;12.776;2023-07-02T03:04:54;286.73;;;59.73;;
31091;SDS011;67728;53.122;12.776;2023-07-02T03:06:27;293.27;;;63.10;;
31091;SDS011;67728;53.122;12.776;2023-07-02T03:08:00;288.70;;;61.63;;
31091;SDS011;67728;53.122;12.776;2023-07-02T03:09:31;301.00;;;81.77;;
31091;SDS011;67728;53.122;12.776;2023-07-02T03:11:03;292.07;;;65.63;;
31091;SDS011;67728;53.122;12.776;2023-07-02T03:12:34;288.63;;;62.63;;
31091;SDS011;67728;53.122;12.776;2023-07-02T03:14:06;286.40;;;61.53;;
31091;SDS011;67728;53.122;12.776;2023-07-02T03:15:38;285.27;;;59.90;;
31091;SDS011;67728;53.122;12.776;2023-07-02T03:17:09;290.53;;;61.97;;
31091;SDS011;67728;53.122;12.776;2023-07-02T03:18:40;288.97;;;61.30;;
31091;SDS011;67728;53.122;12.776;2023-07-02T03:20:12;289.60;;;62.50;;
31091;SDS011;67728;53.122;12.776;2023-07-02T03:21:43;289.00;;;61.53;;
31091;SDS011;67728;53.122;12.776;2023-07-02T03:23:16;286.20;;;60.87;;
31091;SDS011;67728;53.122;12.776;2023-07-02T03:24:47;285.63;;;59.13;;
31091;SDS011;67728;53.122;12.776;2023-07-02T03:26:19;291.07;;;62.33;;
31091;SDS011;67728;53.122;12.776;2023-07-02T03:27:50;299.43;;;70.53;;
31091;SDS011;67728;53.122;12.776;2023-07-02T03:29:22;299.13;;;70.57;;
31091;SDS011;67728;53.122;12.776;2023-07-02T03:30:53;296.23;;;71.13;;
31091;SDS011;67728;53.122;12.776;2023-07-02T03:32:24;287.23;;;60.63;;
31091;SDS011;67728;53.122;12.776;2023-07-02T03:33:55;288.80;;;61.30;;
31091;SDS011;67728;53.122;12.776;2023-07-02T03:35:27;291.63;;;61.90;;
31091;SDS011;67728;53.122;12.776;2023-07-02T03:36:58;288.50;;;60.37;;
31091;SDS011;67728;53.122;12.776;2023-07-02T03:38:32;289.37;;;61.40;;
31091;SDS011;67728;53.122;12.776;2023-07-02T03:40:03;288.23;;;60.87;;
31091;SDS011;67728;53.122;12.776;2023-07-02T03:41:35;287.63;;;60.57;;
31091;SDS011;67728;53.122;12.776;2023-07-02T03:43:06;284.83;;;59.17;;
31091;SDS011;67728;53.122;12.776;2023-07-02T03:44:37;290.63;;;64.00;;
31091;SDS011;67728;53.122;12.776;2023-07-02T03:46:08;287.87;;;60.40;;
31091;SDS011;67728;53.122;12.776;2023-07-02T03:47:39;287.70;;;60.43;;
31091;SDS011;67728;53.122;12.776;2023-07-02T03:49:10;286.63;;;60.40;;
31091;SDS011;67728;53.122;12.776;2023-07-02T03:50:42;288.77;;;60.57;;
31091;SDS011;67728;53.122;12.776;2023-07-02T03:52:12;287.67;;;60.17;;
31091;SDS011;67728;53.122;12.776;2023-07-02T03:53:45;286.87;;;59.73;;
31091;SDS011;67728;53.122;12.776;2023-07-02T03:55:17;289.30;;;63.47;;
31091;SDS011;67728;53.122;12.776;2023-07-02T03:56:50;288.50;;;60.73;;
31091;SDS011;67728;53.122;12.776;2023-07-02T03:58:21;286.53;;;60.70;;
31091;SDS011;67728;53.122;12.776;2023-07-02T03:59:53;285.40;;;59.67;;
31091;SDS011;67728;53.122;12.776;2023-07-02T04:01:24;288.77;;;61.23;;
31091;SDS011;67728;53.122;12.776;2023-07-02T04:02:56;285.90;;;59.80;;
31091;SDS011;67728;53.122;12.776;2023-07-02T04:04:27;287.27;;;60.43;;
31091;SDS011;67728;53.122;12.776;2023-07-02T04:05:58;140.17;;;30.13;;
31091;SDS011;67728;53.122;12.776;2023-07-02T04:07:30;6.60;;;2.73;;
31091;SDS011;67728;53.122;12.776;2023-07-02T04:09:02;6.83;;;3.00;;
31091;SDS011;67728;53.122;12.776;2023-07-02T04:10:34;205.20;;;45.90;;
31091;SDS011;67728;53.122;12.776;2023-07-02T04:12:07;288.57;;;60.63;;
31091;SDS011;67728;53.122;12.776;2023-07-02T04:13:39;291.07;;;62.47;;
31091;SDS011;67728;53.122;12.776;2023-07-02T04:15:11;296.07;;;67.40;;
31091;SDS011;67728;53.122;12.776;2023-07-02T04:16:43;301.57;;;75.27;;
31091;SDS011;67728;53.122;12.776;2023-07-02T04:18:14;286.13;;;60.37;;
31091;SDS011;67728;53.122;12.776;2023-07-02T04:19:46;283.10;;;59.37;;
31091;SDS011;67728;53.122;12.776;2023-07-02T04:21:17;284.97;;;59.53;;
31091;SDS011;67728;53.122;12.776;2023-07-02T04:22:48;282.97;;;59.10;;
31091;SDS011;67728;53.122;12.776;2023-07-02T04:24:20;5.07;;;2.17;;
31091;SDS011;67728;53.122;12.776;2023-07-02T04:25:52;5.20;;;2.13;;
31091;SDS011;67728;53.122;12.776;2023-07-02T04:27:22;10.50;;;3.53;;
31091;SDS011;67728;53.122;12.776;2023-07-02T04:28:54;4.33;;;1.90;;
31091;SDS011;67728;53.122;12.776;2023-07-02T04:30:25;7.50;;;2.63;;
31091;SDS011;67728;53.122;12.776;2023-07-02T04:31:57;4.67;;;2.00;;
31091;SDS011;67728;53.122;12.776;2023-07-02T04:33:28;6.80;;;2.50;;
31091;SDS011;67728;53.122;12.776;2023-07-02T04:35:05;7.30;;;2.57;;
31091;SDS011;67728;53.122;12.776;2023-07-02T04:36:38;3.63;;;1.80;;
31091;SDS011;67728;53.122;12.776;2023-07-02T04:38:09;9.93;;;3.37;;
31091;SDS011;67728;53.122;12.776;2023-07-02T04:39:41;4.30;;;1.97;;
31091;SDS011;67728;53.122;12.776;2023-07-02T04:41:13;5.20;;;2.13;;
31091;SDS011;67728;53.122;12.776;2023-07-02T04:42:43;2.77;;;1.57;;
31091;SDS011;67728;53.122;12.776;2023-07-02T04:44:16;3.33;;;1.77;;
31091;SDS011;67728;53.122;12.776;2023-07-02T04:45:48;3.53;;;1.80;;
31091;SDS011;67728;53.122;12.776;2023-07-02T04:47:20;4.80;;;2.13;;
31091;SDS011;67728;53.122;12.776;2023-07-02T04:48:51;12.23;;;4.00;;
31091;SDS011;67728;53.122;12.776;2023-07-02T04:50:23;5.33;;;2.20;;
31091;SDS011;67728;53.122;12.776;2023-07-02T04:51:54;4.93;;;2.87;;
31091;SDS011;67728;53.122;12.776;2023-07-02T04:53:25;2.70;;;1.50;;
31091;SDS011;67728;53.122;12.776;2023-07-02T04:54:58;4.13;;;1.97;;
31091;SDS011;67728;53.122;12.776;2023-07-02T04:56:30;3.23;;;1.63;;
31091;SDS011;67728;53.122;12.776;2023-07-02T04:58:01;3.63;;;1.77;;
31091;SDS011;67728;53.122;12.776;2023-07-02T04:59:32;7.60;;;2.83;;
31091;SDS011;67728;53.122;12.776;2023-07-02T05:01:03;2.00;;;1.33;;
31091;SDS011;67728;53.122;12.776;2023-07-02T05:02:35;3.30;;;1.70;;
31091;SDS011;67728;53.122;12.776;2023-07-02T05:04:08;8.07;;;2.93;;
31091;SDS011;67728;53.122;12.776;2023-07-02T05:05:40;4.80;;;2.07;;
31091;SDS011;67728;53.122;12.776;2023-07-02T05:07:11;4.40;;;2.17;;
31091;SDS011;67728;53.122;12.776;2023-07-02T05:08:42;6.23;;;2.83;;
31091;SDS011;67728;53.122;12.776;2023-07-02T05:10:15;4.93;;;2.33;;
31091;SDS011;67728;53.122;12.776;2023-07-02T05:11:47;7.47;;;2.97;;
31091;SDS011;67728;53.122;12.776;2023-07-02T05:13:18;8.63;;;3.40;;
31091;SDS011;67728;53.122;12.776;2023-07-02T05:14:49;4.10;;;2.17;;
31091;SDS011;67728;53.122;12.776;2023-07-02T05:16:21;4.33;;;2.27;;
31091;SDS011;67728;53.122;12.776;2023-07-02T05:17:52;5.07;;;2.67;;
31091;SDS011;67728;53.122;12.776;2023-07-02T05:19:24;4.67;;;2.80;;
31091;SDS011;67728;53.122;12.776;2023-07-02T05:20:56;8.07;;;3.50;;
31091;SDS011;67728;53.122;12.776;2023-07-02T05:22:27;4.33;;;2.23;;
31091;SDS011;67728;53.122;12.776;2023-07-02T05:23:58;4.47;;;2.33;;
31091;SDS011;67728;53.122;12.776;2023-07-02T05:25:31;216.37;;;44.87;;
31091;SDS011;67728;53.122;12.776;2023-07-02T05:27:04;303.67;;;72.50;;
31091;SDS011;67728;53.122;12.776;2023-07-02T05:28:35;297.77;;;68.97;;
31091;SDS011;67728;53.122;12.776;2023-07-02T05:30:07;296.17;;;72.33;;
31091;SDS011;67728;53.122;12.776;2023-07-02T05:31:39;295.40;;;67.10;;
31091;SDS011;67728;53.122;12.776;2023-07-02T05:33:10;297.10;;;67.60;;
31091;SDS011;67728;53.122;12.776;2023-07-02T05:34:42;296.07;;;66.37;;
31091;SDS011;67728;53.122;12.776;2023-07-02T05:36:13;290.03;;;62.60;;
31091;SDS011;67728;53.122;12.776;2023-07-02T05:37:45;293.20;;;64.20;;
31091;SDS011;67728;53.122;12.776;2023-07-02T05:39:17;297.17;;;66.87;;
31091;SDS011;67728;53.122;12.776;2023-07-02T05:40:49;294.80;;;64.47;;
31091;SDS011;67728;53.122;12.776;2023-07-02T05:42:20;293.13;;;62.90;;
31091;SDS011;67728;53.122;12.776;2023-07-02T05:43:52;299.10;;;66.33;;
31091;SDS011;67728;53.122;12.776;2023-07-02T05:45:23;298.27;;;69.37;;
31091;SDS011;67728;53.122;12.776;2023-07-02T05:46:57;294.13;;;62.87;;
31091;SDS011;67728;53.122;12.776;2023-07-02T05:48:29;294.10;;;66.03;;
31091;SDS011;67728;53.122;12.776;2023-07-02T05:50:00;298.53;;;69.27;;
31091;SDS011;67728;53.122;12.776;2023-07-02T05:51:31;302.87;;;72.17;;
31091;SDS011;67728;53.122;12.776;2023-07-02T05:53:03;292.90;;;65.80;;
31091;SDS011;67728;53.122;12.776;2023-07-02T05:54:34;292.43;;;64.07;;
31091;SDS011;67728;53.122;12.776;2023-07-02T05:56:07;290.47;;;62.40;;
31091;SDS011;67728;53.122;12.776;2023-07-02T05:57:39;306.27;;;67.67;;
31091;SDS011;67728;53.122;12.776;2023-07-02T05:59:10;294.03;;;64.50;;
31091;SDS011;67728;53.122;12.776;2023-07-02T06:00:44;291.67;;;62.53;;
31091;SDS011;67728;53.122;12.776;2023-07-02T06:02:19;293.63;;;65.00;;
31091;SDS011;67728;53.122;12.776;2023-07-02T06:03:50;294.73;;;65.03;;
31091;SDS011;67728;53.122;12.776;2023-07-02T06:05:21;294.97;;;65.03;;
31091;SDS011;67728;53.122;12.776;2023-07-02T06:06:53;293.73;;;64.30;;
31091;SDS011;67728;53.122;12.776;2023-07-02T06:08:23;292.30;;;61.97;;
31091;SDS011;67728;53.122;12.776;2023-07-02T06:09:55;299.70;;;70.90;;
31091;SDS011;67728;53.122;12.776;2023-07-02T06:11:28;300.83;;;69.90;;
31091;SDS011;67728;53.122;12.776;2023-07-02T06:12:59;296.43;;;68.87;;
31091;SDS011;67728;53.122;12.776;2023-07-02T06:14:31;301.00;;;69.97;;
31091;SDS011;67728;53.122;12.776;2023-07-02T06:16:03;296.00;;;66.87;;
31091;SDS011;67728;53.122;12.776;2023-07-02T06:17:34;297.13;;;73.13;;
31091;SDS011;67728;53.122;12.776;2023-07-02T06:19:05;304.70;;;72.17;;
31091;SDS011;67728;53.122;12.776;2023-07-02T06:20:37;296.37;;;67.87;;
31091;SDS011;67728;53.122;12.776;2023-07-02T06:22:08;295.93;;;66.47;;
31091;SDS011;67728;53.122;12.776;2023-07-02T06:23:41;295.93;;;66.83;;
31091;SDS011;67728;53.122;12.776;2023-07-02T06:25:13;302.00;;;70.13;;
31091;SDS011;67728;53.122;12.776;2023-07-02T06:26:46;294.40;;;65.90;;
31091;SDS011;67728;53.122;12.776;2023-07-02T06:28:17;298.83;;;70.43;;
31091;SDS011;67728;53.122;12.776;2023-07-02T06:29:49;300.87;;;71.63;;
31091;SDS011;67728;53.122;12.776;2023-07-02T06:31:21;301.67;;;69.43;;
31091;SDS011;67728;53.122;12.776;2023-07-02T06:32:53;299.07;;;70.17;;
31091;SDS011;67728;53.122;12.776;2023-07-02T06:34:25;298.37;;;69.80;;
31091;SDS011;67728;53.122;12.776;2023-07-02T06:35:56;300.50;;;68.50;;
31091;SDS011;67728;53.122;12.776;2023-07-02T06:37:28;295.73;;;67.60;;
31091;SDS011;67728;53.122;12.776;2023-07-02T06:38:59;300.07;;;68.07;;
31091;SDS011;67728;53.122;12.776;2023-07-02T06:40:31;298.37;;;67.30;;
31091;SDS011;67728;53.122;12.776;2023-07-02T06:42:04;296.70;;;66.77;;
31091;SDS011;67728;53.122;12.776;2023-07-02T06:43:36;293.73;;;65.70;;
31091;SDS011;67728;53.122;12.776;2023-07-02T06:45:08;296.90;;;66.30;;
31091;SDS011;67728;53.122;12.776;2023-07-02T06:46:39;297.17;;;68.27;;
31091;SDS011;67728;53.122;12.776;2023-07-02T06:48:11;295.90;;;68.57;;
31091;SDS011;67728;53.122;12.776;2023-07-02T06:49:44;298.93;;;69.30;;
31091;SDS011;67728;53.122;12.776;2023-07-02T06:51:16;294.67;;;67.73;;
31091;SDS011;67728;53.122;12.776;2023-07-02T06:52:48;299.57;;;67.13;;
31091;SDS011;67728;53.122;12.776;2023-07-02T06:54:20;295.13;;;66.47;;
31091;SDS011;67728;53.122;12.776;2023-07-02T06:55:51;291.93;;;63.90;;
31091;SDS011;67728;53.122;12.776;2023-07-02T06:57:24;297.93;;;68.07;;
31091;SDS011;67728;53.122;12.776;2023-07-02T06:58:56;293.87;;;65.97;;
31091;SDS011;67728;53.122;12.776;2023-07-02T07:00:30;293.00;;;66.27;;
31091;SDS011;67728;53.122;12.776;2023-07-02T07:02:01;293.27;;;64.97;;
31091;SDS011;67728;53.122;12.776;2023-07-02T07:03:33;301.90;;;70.03;;
31091;SDS011;67728;53.122;12.776;2023-07-02T07:05:05;294.87;;;67.47;;
31091;SDS011;67728;53.122;12.776;2023-07-02T07:06:38;296.63;;;67.67;;
31091;SDS011;67728;53.122;12.776;2023-07-02T07:08:10;292.73;;;65.50;;
31091;SDS011;67728;53.122;12.776;2023-07-02T07:09:41;294.90;;;65.73;;
31091;SDS011;67728;53.122;12.776;2023-07-02T07:11:13;294.90;;;66.30;;
31091;SDS011;67728;53.122;12.776;2023-07-02T07:12:46;295.70;;;65.57;;
31091;SDS011;67728;53.122;12.776;2023-07-02T07:14:17;299.50;;;67.00;;
31091;SDS011;67728;53.122;12.776;2023-07-02T07:15:48;298.13;;;67.97;;
31091;SDS011;67728;53.122;12.776;2023-07-02T07:17:20;293.63;;;65.73;;
31091;SDS011;67728;53.122;12.776;2023-07-02T07:18:51;303.97;;;71.20;;
31091;SDS011;67728;53.122;12.776;2023-07-02T07:20:23;6.03;;;2.63;;
31091;SDS011;67728;53.122;12.776;2023-07-02T07:21:54;7.83;;;3.00;;
31091;SDS011;67728;53.122;12.776;2023-07-02T07:23:26;7.30;;;3.10;;
31091;SDS011;67728;53.122;12.776;2023-07-02T07:24:57;13.30;;;4.47;;
31091;SDS011;67728;53.122;12.776;2023-07-02T07:26:29;4.17;;;2.07;;
31091;SDS011;67728;53.122;12.776;2023-07-02T07:28:01;4.47;;;2.10;;
31091;SDS011;67728;53.122;12.776;2023-07-02T07:29:32;4.70;;;2.13;;
31091;SDS011;67728;53.122;12.776;2023-07-02T07:31:04;6.83;;;2.57;;
31091;SDS011;67728;53.122;12.776;2023-07-02T07:32:36;5.17;;;2.43;;
31091;SDS011;67728;53.122;12.776;2023-07-02T07:34:07;19.93;;;6.13;;
31091;SDS011;67728;53.122;12.776;2023-07-02T07:35:38;4.33;;;2.23;;
31091;SDS011;67728;53.122;12.776;2023-07-02T07:37:09;4.20;;;1.97;;
31091;SDS011;67728;53.122;12.776;2023-07-02T07:38:42;4.20;;;2.00;;
31091;SDS011;67728;53.122;12.776;2023-07-02T07:40:14;12.90;;;4.17;;
31091;SDS011;67728;53.122;12.776;2023-07-02T07:41:46;4.27;;;2.00;;
31091;SDS011;67728;53.122;12.776;2023-07-02T07:43:20;4.20;;;1.87;;
31091;SDS011;67728;53.122;12.776;2023-07-02T07:44:51;7.13;;;2.63;;
31091;SDS011;67728;53.122;12.776;2023-07-02T07:46:23;8.03;;;3.03;;
31091;SDS011;67728;53.122;12.776;2023-07-02T07:47:55;3.50;;;1.80;;
31091;SDS011;67728;53.122;12.776;2023-07-02T07:49:26;6.87;;;2.70;;
31091;SDS011;67728;53.122;12.776;2023-07-02T07:50:58;3.20;;;1.73;;
31091;SDS011;67728;53.122;12.776;2023-07-02T07:52:29;2.67;;;1.60;;
31091;SDS011;67728;53.122;12.776;2023-07-02T07:54:01;11.20;;;4.07;;
31091;SDS011;67728;53.122;12.776;2023-07-02T07:55:32;2.70;;;2.00;;
31091;SDS011;67728;53.122;12.776;2023-07-02T07:57:04;7.47;;;2.77;;
31091;SDS011;67728;53.122;12.776;2023-07-02T07:58:38;2.27;;;1.43;;
31091;SDS011;67728;53.122;12.776;2023-07-02T08:00:10;4.90;;;2.20;;
31091;SDS011;67728;53.122;12.776;2023-07-02T08:01:42;11.97;;;4.20;;
31091;SDS011;67728;53.122;12.776;2023-07-02T08:03:14;2.73;;;1.63;;
31091;SDS011;67728;53.122;12.776;2023-07-02T08:04:45;7.33;;;2.80;;
31091;SDS011;67728;53.122;12.776;2023-07-02T08:06:17;3.13;;;1.70;;
31091;SDS011;67728;53.122;12.776;2023-07-02T08:07:48;9.60;;;3.40;;
31091;SDS011;67728;53.122;12.776;2023-07-02T08:09:20;3.47;;;1.83;;
31091;SDS011;67728;53.122;12.776;2023-07-02T08:10:52;3.80;;;1.80;;
31091;SDS011;67728;53.122;12.776;2023-07-02T08:12:23;5.57;;;2.40;;
31091;SDS011;67728;53.122;12.776;2023-07-02T08:13:58;5.03;;;2.23;;
31091;SDS011;67728;53.122;12.776;2023-07-02T08:15:30;3.80;;;1.87;;
31091;SDS011;67728;53.122;12.776;2023-07-02T08:17:01;2.97;;;2.67;;
31091;SDS011;67728;53.122;12.776;2023-07-02T08:18:33;5.20;;;2.83;;
31091;SDS011;67728;53.122;12.776;2023-07-02T08:20:05;4.50;;;2.77;;
31091;SDS011;67728;53.122;12.776;2023-07-02T08:21:39;3.43;;;1.83;;
31091;SDS011;67728;53.122;12.776;2023-07-02T08:23:11;5.77;;;2.53;;
31091;SDS011;67728;53.122;12.776;2023-07-02T08:24:43;4.30;;;1.97;;
31091;SDS011;67728;53.122;12.776;2023-07-02T08:26:14;3.73;;;1.87;;
31091;SDS011;67728;53.122;12.776;2023-07-02T08:27:46;3.03;;;1.73;;
31091;SDS011;67728;53.122;12.776;2023-07-02T08:29:19;8.37;;;3.17;;
31091;SDS011;67728;53.122;12.776;2023-07-02T08:30:50;5.37;;;2.37;;
31091;SDS011;67728;53.122;12.776;2023-07-02T08:32:22;6.70;;;2.63;;
31091;SDS011;67728;53.122;12.776;2023-07-02T08:33:54;5.67;;;2.57;;
31091;SDS011;67728;53.122;12.776;2023-07-02T08:35:25;4.20;;;2.07;;
31091;SDS011;67728;53.122;12.776;2023-07-02T08:36:57;2.70;;;1.60;;
31091;SDS011;67728;53.122;12.776;2023-07-02T08:38:28;9.80;;;3.67;;
31091;SDS011;67728;53.122;12.776;2023-07-02T08:39:59;6.13;;;2.70;;
31091;SDS011;67728;53.122;12.776;2023-07-02T08:41:40;4.80;;;2.37;;
31091;SDS011;67728;53.122;12.776;2023-07-02T08:43:13;11.47;;;4.00;;
31091;SDS011;67728;53.122;12.776;2023-07-02T08:44:46;16.33;;;5.03;;
31091;SDS011;67728;53.122;12.776;2023-07-02T08:46:19;5.43;;;2.47;;
31091;SDS011;67728;53.122;12.776;2023-07-02T08:47:51;6.73;;;2.77;;